sensor_id;sensor_type;location;lat;lon;timestamp;temperature;humidity
67529;DHT22;54366;51.980;5.856;2023-02-28T00:01:43;2.80;68.80
67529;DHT22;54366;51.980;5.856;2023-02-28T00:04:23;2.90;69.10
67529;DHT22;54366;51.980;5.856;2023-02-28T00:06:56;2.90;69.10
67529;DHT22;54366;51.980;5.856;2023-02-28T00:09:29;2.90;69.10
67529;DHT22;54366;51.980;5.856;2023-02-28T00:12:02;2.90;69.40
67529;DHT22;54366;51.980;5.856;2023-02-28T00:14:42;2.90;68.90
67529;DHT22;54366;51.980;5.856;2023-02-28T00:17:15;3.00;69.20
67529;DHT22;54366;51.980;5.856;2023-02-28T00:19:49;3.00;68.80
67529;DHT22;54366;51.980;5.856;2023-02-28T00:22:23;3.00;69.00
67529;DHT22;54366;51.980;5.856;2023-02-28T00:24:56;3.10;69.00
67529;DHT22;54366;51.980;5.856;2023-02-28T00:27:29;3.10;68.70
67529;DHT22;54366;51.980;5.856;2023-02-28T00:29:56;3.10;68.90
67529;DHT22;54366;51.980;5.856;2023-02-28T00:32:29;3.20;69.00
67529;DHT22;54366;51.980;5.856;2023-02-28T00:35:03;3.20;69.30
67529;DHT22;54366;51.980;5.856;2023-02-28T00:37:37;3.20;69.30
67529;DHT22;54366;51.980;5.856;2023-02-28T00:40:10;3.20;69.00
67529;DHT22;54366;51.980;5.856;2023-02-28T00:42:44;3.20;68.80
67529;DHT22;54366;51.980;5.856;2023-02-28T00:45:17;3.20;68.50
67529;DHT22;54366;51.980;5.856;2023-02-28T00:47:50;3.20;68.20
67529;DHT22;54366;51.980;5.856;2023-02-28T00:50:23;3.30;68.10
67529;DHT22;54366;51.980;5.856;2023-02-28T00:52:57;3.30;68.10
67529;DHT22;54366;51.980;5.856;2023-02-28T00:55:30;3.30;67.90
67529;DHT22;54366;51.980;5.856;2023-02-28T00:58:04;3.30;67.80
67529;DHT22;54366;51.980;5.856;2023-02-28T01:00:30;3.40;67.70
67529;DHT22;54366;51.980;5.856;2023-02-28T01:03:04;3.40;67.70
67529;DHT22;54366;51.980;5.856;2023-02-28T01:05:30;3.40;68.10
67529;DHT22;54366;51.980;5.856;2023-02-28T01:08:03;3.40;68.10
67529;DHT22;54366;51.980;5.856;2023-02-28T01:10:36;3.40;67.90
67529;DHT22;54366;51.980;5.856;2023-02-28T01:13:09;3.50;67.70
67529;DHT22;54366;51.980;5.856;2023-02-28T01:15:55;3.50;67.70
67529;DHT22;54366;51.980;5.856;2023-02-28T01:18:28;3.50;67.50
67529;DHT22;54366;51.980;5.856;2023-02-28T01:21:09;3.50;67.60
67529;DHT22;54366;51.980;5.856;2023-02-28T01:23:44;3.50;67.50
67529;DHT22;54366;51.980;5.856;2023-02-28T01:26:20;3.50;67.60
67529;DHT22;54366;51.980;5.856;2023-02-28T01:28:53;3.50;67.70
67529;DHT22;54366;51.980;5.856;2023-02-28T01:31:26;3.50;68.10
67529;DHT22;54366;51.980;5.856;2023-02-28T01:33:59;3.40;67.70
67529;DHT22;54366;51.980;5.856;2023-02-28T01:36:32;3.40;67.70
67529;DHT22;54366;51.980;5.856;2023-02-28T01:38:58;3.40;67.70
67529;DHT22;54366;51.980;5.856;2023-02-28T01:41:33;3.50;67.90
67529;DHT22;54366;51.980;5.856;2023-02-28T01:47:39;3.50;68.10
67529;DHT22;54366;51.980;5.856;2023-02-28T01:50:20;3.40;68.00
67529;DHT22;54366;51.980;5.856;2023-02-28T01:52:56;3.40;68.10
67529;DHT22;54366;51.980;5.856;2023-02-28T01:55:32;3.40;67.80
67529;DHT22;54366;51.980;5.856;2023-02-28T01:58:01;3.40;67.80
67529;DHT22;54366;51.980;5.856;2023-02-28T02:00:35;3.50;67.90
67529;DHT22;54366;51.980;5.856;2023-02-28T02:03:12;3.50;68.00
67529;DHT22;54366;51.980;5.856;2023-02-28T02:05:46;3.50;68.00
67529;DHT22;54366;51.980;5.856;2023-02-28T02:08:25;3.50;68.10
67529;DHT22;54366;51.980;5.856;2023-02-28T02:11:00;3.50;68.10
67529;DHT22;54366;51.980;5.856;2023-02-28T02:17:19;3.50;68.80
67529;DHT22;54366;51.980;5.856;2023-02-28T02:20:24;3.50;68.90
67529;DHT22;54366;51.980;5.856;2023-02-28T02:27:24;3.60;68.90
67529;DHT22;54366;51.980;5.856;2023-02-28T02:29:27;3.60;68.60
67529;DHT22;54366;51.980;5.856;2023-02-28T02:36:02;3.60;68.60
67529;DHT22;54366;51.980;5.856;2023-02-28T02:38:58;3.60;68.40
67529;DHT22;54366;51.980;5.856;2023-02-28T02:41:39;3.60;68.10
67529;DHT22;54366;51.980;5.856;2023-02-28T02:44:24;3.70;68.10
67529;DHT22;54366;51.980;5.856;2023-02-28T02:47:12;3.60;67.80
67529;DHT22;54366;51.980;5.856;2023-02-28T02:49:50;3.60;67.90
67529;DHT22;54366;51.980;5.856;2023-02-28T02:52:31;3.60;67.70
67529;DHT22;54366;51.980;5.856;2023-02-28T02:55:09;3.70;67.60
67529;DHT22;54366;51.980;5.856;2023-02-28T02:57:57;3.70;67.30
67529;DHT22;54366;51.980;5.856;2023-02-28T03:00:44;3.70;67.10
67529;DHT22;54366;51.980;5.856;2023-02-28T03:03:33;3.70;66.80
67529;DHT22;54366;51.980;5.856;2023-02-28T03:06:07;3.80;66.00
67529;DHT22;54366;51.980;5.856;2023-02-28T03:08:41;3.80;66.00
67529;DHT22;54366;51.980;5.856;2023-02-28T03:11:15;3.80;65.80
67529;DHT22;54366;51.980;5.856;2023-02-28T03:14:02;3.80;65.50
67529;DHT22;54366;51.980;5.856;2023-02-28T03:20:01;3.90;65.00
67529;DHT22;54366;51.980;5.856;2023-02-28T03:23:01;3.80;64.90
67529;DHT22;54366;51.980;5.856;2023-02-28T03:25:54;3.90;64.80
67529;DHT22;54366;51.980;5.856;2023-02-28T03:28:40;3.90;64.40
67529;DHT22;54366;51.980;5.856;2023-02-28T03:31:21;3.80;64.40
67529;DHT22;54366;51.980;5.856;2023-02-28T03:34:15;3.90;64.40
67529;DHT22;54366;51.980;5.856;2023-02-28T03:36:53;3.90;64.20
67529;DHT22;54366;51.980;5.856;2023-02-28T03:39:34;3.90;64.10
67529;DHT22;54366;51.980;5.856;2023-02-28T03:42:23;3.80;62.80
67529;DHT22;54366;51.980;5.856;2023-02-28T03:44:59;3.90;62.90
67529;DHT22;54366;51.980;5.856;2023-02-28T03:47:41;3.90;63.10
67529;DHT22;54366;51.980;5.856;2023-02-28T03:50:26;3.90;62.90
67529;DHT22;54366;51.980;5.856;2023-02-28T03:53:29;3.90;62.90
67529;DHT22;54366;51.980;5.856;2023-02-28T03:56:12;3.90;61.70
67529;DHT22;54366;51.980;5.856;2023-02-28T03:59:22;3.80;61.20
67529;DHT22;54366;51.980;5.856;2023-02-28T04:01:57;3.80;61.60
67529;DHT22;54366;51.980;5.856;2023-02-28T04:04:37;3.70;61.80
67529;DHT22;54366;51.980;5.856;2023-02-28T04:07:08;3.70;60.40
67529;DHT22;54366;51.980;5.856;2023-02-28T04:09:41;3.70;60.40
67529;DHT22;54366;51.980;5.856;2023-02-28T04:12:14;3.80;60.10
67529;DHT22;54366;51.980;5.856;2023-02-28T04:14:47;3.70;59.80
67529;DHT22;54366;51.980;5.856;2023-02-28T04:17:13;3.60;60.40
67529;DHT22;54366;51.980;5.856;2023-02-28T04:19:46;3.70;60.40
67529;DHT22;54366;51.980;5.856;2023-02-28T04:22:12;3.70;60.50
67529;DHT22;54366;51.980;5.856;2023-02-28T04:24:46;3.70;60.50
67529;DHT22;54366;51.980;5.856;2023-02-28T04:27:19;3.70;60.20
67529;DHT22;54366;51.980;5.856;2023-02-28T04:29:52;3.70;59.80
67529;DHT22;54366;51.980;5.856;2023-02-28T04:32:25;3.70;60.30
67529;DHT22;54366;51.980;5.856;2023-02-28T04:34:58;3.80;60.40
67529;DHT22;54366;51.980;5.856;2023-02-28T04:37:31;3.70;60.10
67529;DHT22;54366;51.980;5.856;2023-02-28T04:40:07;3.70;60.40
67529;DHT22;54366;51.980;5.856;2023-02-28T04:42:41;3.70;60.60
67529;DHT22;54366;51.980;5.856;2023-02-28T04:45:14;3.70;60.60
67529;DHT22;54366;51.980;5.856;2023-02-28T04:47:47;3.60;60.70
67529;DHT22;54366;51.980;5.856;2023-02-28T04:50:20;3.60;60.90
67529;DHT22;54366;51.980;5.856;2023-02-28T04:52:53;3.60;61.20
67529;DHT22;54366;51.980;5.856;2023-02-28T04:55:20;3.60;61.30
67529;DHT22;54366;51.980;5.856;2023-02-28T04:57:53;3.60;61.50
67529;DHT22;54366;51.980;5.856;2023-02-28T05:00:26;3.50;61.50
67529;DHT22;54366;51.980;5.856;2023-02-28T05:03:05;3.50;61.70
67529;DHT22;54366;51.980;5.856;2023-02-28T05:05:51;3.50;61.90
67529;DHT22;54366;51.980;5.856;2023-02-28T05:08:24;3.40;62.00
67529;DHT22;54366;51.980;5.856;2023-02-28T05:10:51;3.40;62.30
67529;DHT22;54366;51.980;5.856;2023-02-28T05:13:24;3.40;62.30
67529;DHT22;54366;51.980;5.856;2023-02-28T05:15:57;3.40;62.20
67529;DHT22;54366;51.980;5.856;2023-02-28T05:18:30;3.40;62.40
67529;DHT22;54366;51.980;5.856;2023-02-28T05:21:03;3.30;62.40
67529;DHT22;54366;51.980;5.856;2023-02-28T05:23:36;3.40;62.60
67529;DHT22;54366;51.980;5.856;2023-02-28T05:26:09;3.40;62.70
67529;DHT22;54366;51.980;5.856;2023-02-28T05:28:42;3.40;62.70
67529;DHT22;54366;51.980;5.856;2023-02-28T05:31:15;3.30;62.80
67529;DHT22;54366;51.980;5.856;2023-02-28T05:33:48;3.30;62.90
67529;DHT22;54366;51.980;5.856;2023-02-28T05:36:21;3.30;63.10
67529;DHT22;54366;51.980;5.856;2023-02-28T05:38:54;3.30;63.20
67529;DHT22;54366;51.980;5.856;2023-02-28T05:41:20;3.30;63.40
67529;DHT22;54366;51.980;5.856;2023-02-28T05:43:54;3.30;63.30
67529;DHT22;54366;51.980;5.856;2023-02-28T05:46:27;3.40;63.60
67529;DHT22;54366;51.980;5.856;2023-02-28T05:49:00;3.30;63.60
67529;DHT22;54366;51.980;5.856;2023-02-28T05:51:33;3.30;63.70
67529;DHT22;54366;51.980;5.856;2023-02-28T05:54:09;3.30;63.60
67529;DHT22;54366;51.980;5.856;2023-02-28T05:56:42;3.30;63.60
67529;DHT22;54366;51.980;5.856;2023-02-28T05:59:18;3.40;63.60
67529;DHT22;54366;51.980;5.856;2023-02-28T06:01:51;3.30;64.00
67529;DHT22;54366;51.980;5.856;2023-02-28T06:04:20;3.30;63.50
67529;DHT22;54366;51.980;5.856;2023-02-28T06:06:53;3.30;63.70
67529;DHT22;54366;51.980;5.856;2023-02-28T06:09:26;3.30;63.70
67529;DHT22;54366;51.980;5.856;2023-02-28T06:12:00;3.40;64.00
67529;DHT22;54366;51.980;5.856;2023-02-28T06:14:35;3.30;64.00
67529;DHT22;54366;51.980;5.856;2023-02-28T06:17:08;3.40;64.10
67529;DHT22;54366;51.980;5.856;2023-02-28T06:19:42;3.40;64.10
67529;DHT22;54366;51.980;5.856;2023-02-28T06:22:15;3.40;64.60
67529;DHT22;54366;51.980;5.856;2023-02-28T06:24:48;3.30;64.90
67529;DHT22;54366;51.980;5.856;2023-02-28T06:27:21;3.30;65.00
67529;DHT22;54366;51.980;5.856;2023-02-28T06:29:54;3.30;65.00
67529;DHT22;54366;51.980;5.856;2023-02-28T06:32:28;3.40;65.20
67529;DHT22;54366;51.980;5.856;2023-02-28T06:35:01;3.40;65.00
67529;DHT22;54366;51.980;5.856;2023-02-28T06:37:34;3.40;64.90
67529;DHT22;54366;51.980;5.856;2023-02-28T06:40:08;3.40;65.00
67529;DHT22;54366;51.980;5.856;2023-02-28T06:42:41;3.40;65.50
67529;DHT22;54366;51.980;5.856;2023-02-28T06:45:14;3.40;65.60
67529;DHT22;54366;51.980;5.856;2023-02-28T06:47:47;3.40;65.20
67529;DHT22;54366;51.980;5.856;2023-02-28T06:50:24;3.40;65.20
67529;DHT22;54366;51.980;5.856;2023-02-28T06:52:57;3.50;65.10
67529;DHT22;54366;51.980;5.856;2023-02-28T06:55:30;3.50;64.60
67529;DHT22;54366;51.980;5.856;2023-02-28T06:58:03;3.50;64.50
67529;DHT22;54366;51.980;5.856;2023-02-28T07:00:36;3.50;64.50
67529;DHT22;54366;51.980;5.856;2023-02-28T07:03:09;3.60;64.50
67529;DHT22;54366;51.980;5.856;2023-02-28T07:05:42;3.60;64.40
67529;DHT22;54366;51.980;5.856;2023-02-28T07:08:23;3.60;63.30
67529;DHT22;54366;51.980;5.856;2023-02-28T07:10:54;3.70;62.90
67529;DHT22;54366;51.980;5.856;2023-02-28T07:13:27;3.70;61.10
67529;DHT22;54366;51.980;5.856;2023-02-28T07:16:02;3.80;61.00
67529;DHT22;54366;51.980;5.856;2023-02-28T07:18:35;3.80;60.80
67529;DHT22;54366;51.980;5.856;2023-02-28T07:21:03;3.90;60.70
67529;DHT22;54366;51.980;5.856;2023-02-28T07:23:36;3.90;60.50
67529;DHT22;54366;51.980;5.856;2023-02-28T07:26:15;3.90;59.50
67529;DHT22;54366;51.980;5.856;2023-02-28T07:28:49;4.00;59.60
67529;DHT22;54366;51.980;5.856;2023-02-28T07:31:22;4.00;58.90
67529;DHT22;54366;51.980;5.856;2023-02-28T07:33:55;4.00;58.50
67529;DHT22;54366;51.980;5.856;2023-02-28T07:36:29;4.10;56.70
67529;DHT22;54366;51.980;5.856;2023-02-28T07:39:02;4.10;56.20
67529;DHT22;54366;51.980;5.856;2023-02-28T07:41:37;4.10;56.50
67529;DHT22;54366;51.980;5.856;2023-02-28T07:44:15;4.10;56.50
67529;DHT22;54366;51.980;5.856;2023-02-28T07:46:48;4.20;56.70
67529;DHT22;54366;51.980;5.856;2023-02-28T07:49:21;4.20;55.90
67529;DHT22;54366;51.980;5.856;2023-02-28T07:51:54;4.20;55.40
67529;DHT22;54366;51.980;5.856;2023-02-28T07:54:20;4.20;55.20
67529;DHT22;54366;51.980;5.856;2023-02-28T07:56:53;4.20;53.00
67529;DHT22;54366;51.980;5.856;2023-02-28T07:59:26;4.20;52.70
67529;DHT22;54366;51.980;5.856;2023-02-28T08:01:59;4.30;53.90
67529;DHT22;54366;51.980;5.856;2023-02-28T08:04:38;4.30;54.40
67529;DHT22;54366;51.980;5.856;2023-02-28T08:07:13;4.30;54.30
67529;DHT22;54366;51.980;5.856;2023-02-28T08:09:46;4.30;54.00
67529;DHT22;54366;51.980;5.856;2023-02-28T08:12:19;4.30;54.40
67529;DHT22;54366;51.980;5.856;2023-02-28T08:14:52;4.40;52.70
67529;DHT22;54366;51.980;5.856;2023-02-28T08:17:18;4.40;53.00
67529;DHT22;54366;51.980;5.856;2023-02-28T08:19:51;4.50;53.40
67529;DHT22;54366;51.980;5.856;2023-02-28T08:22:24;4.50;51.80
67529;DHT22;54366;51.980;5.856;2023-02-28T08:24:57;4.60;51.70
67529;DHT22;54366;51.980;5.856;2023-02-28T08:27:30;4.60;51.20
67529;DHT22;54366;51.980;5.856;2023-02-28T08:30:03;4.70;49.30
67529;DHT22;54366;51.980;5.856;2023-02-28T08:32:36;4.70;49.70
67529;DHT22;54366;51.980;5.856;2023-02-28T08:35:09;4.80;49.60
67529;DHT22;54366;51.980;5.856;2023-02-28T08:37:43;4.90;49.60
67529;DHT22;54366;51.980;5.856;2023-02-28T08:40:24;4.90;49.00
67529;DHT22;54366;51.980;5.856;2023-02-28T08:43:10;5.00;48.50
67529;DHT22;54366;51.980;5.856;2023-02-28T08:45:43;5.10;46.80
67529;DHT22;54366;51.980;5.856;2023-02-28T08:48:16;5.20;46.30
67529;DHT22;54366;51.980;5.856;2023-02-28T08:50:42;5.20;47.00
67529;DHT22;54366;51.980;5.856;2023-02-28T08:53:15;5.40;47.00
67529;DHT22;54366;51.980;5.856;2023-02-28T08:55:56;5.50;45.30
67529;DHT22;54366;51.980;5.856;2023-02-28T08:58:29;5.60;45.60
67529;DHT22;54366;51.980;5.856;2023-02-28T09:01:24;5.70;45.80
67529;DHT22;54366;51.980;5.856;2023-02-28T09:03:57;5.70;44.00
67529;DHT22;54366;51.980;5.856;2023-02-28T09:06:30;5.80;43.80
67529;DHT22;54366;51.980;5.856;2023-02-28T09:09:11;5.80;44.20
67529;DHT22;54366;51.980;5.856;2023-02-28T09:11:44;5.90;42.20
67529;DHT22;54366;51.980;5.856;2023-02-28T09:14:17;6.00;40.40
67529;DHT22;54366;51.980;5.856;2023-02-28T09:16:50;5.90;40.70
67529;DHT22;54366;51.980;5.856;2023-02-28T09:19:23;6.00;41.90
67529;DHT22;54366;51.980;5.856;2023-02-28T09:21:56;6.00;41.20
67529;DHT22;54366;51.980;5.856;2023-02-28T09:27:04;6.10;40.50
67529;DHT22;54366;51.980;5.856;2023-02-28T09:29:37;6.20;41.60
67529;DHT22;54366;51.980;5.856;2023-02-28T09:32:10;6.40;40.90
67529;DHT22;54366;51.980;5.856;2023-02-28T09:34:43;6.50;39.30
67529;DHT22;54366;51.980;5.856;2023-02-28T09:37:09;6.50;38.80
67529;DHT22;54366;51.980;5.856;2023-02-28T09:39:42;6.50;38.50
67529;DHT22;54366;51.980;5.856;2023-02-28T09:42:22;6.50;37.90
67529;DHT22;54366;51.980;5.856;2023-02-28T09:45:01;6.50;38.00
67529;DHT22;54366;51.980;5.856;2023-02-28T09:47:40;6.60;38.90
67529;DHT22;54366;51.980;5.856;2023-02-28T09:50:59;6.70;38.30
67529;DHT22;54366;51.980;5.856;2023-02-28T09:53:35;6.80;38.60
67529;DHT22;54366;51.980;5.856;2023-02-28T09:56:36;6.90;38.10
67529;DHT22;54366;51.980;5.856;2023-02-28T09:59:39;6.90;36.50
67529;DHT22;54366;51.980;5.856;2023-02-28T10:03:02;6.90;36.70
67529;DHT22;54366;51.980;5.856;2023-02-28T10:05:57;7.00;37.60
67529;DHT22;54366;51.980;5.856;2023-02-28T10:08:38;7.00;37.70
67529;DHT22;54366;51.980;5.856;2023-02-28T10:11:16;7.10;37.80
67529;DHT22;54366;51.980;5.856;2023-02-28T10:14:01;7.20;38.40
67529;DHT22;54366;51.980;5.856;2023-02-28T10:17:08;7.30;37.80
67529;DHT22;54366;51.980;5.856;2023-02-28T10:20:12;7.40;38.70
67529;DHT22;54366;51.980;5.856;2023-02-28T10:23:27;7.50;36.40
67529;DHT22;54366;51.980;5.856;2023-02-28T10:26:11;7.60;36.10
67529;DHT22;54366;51.980;5.856;2023-02-28T10:28:45;7.70;36.30
67529;DHT22;54366;51.980;5.856;2023-02-28T10:31:19;7.70;36.80
67529;DHT22;54366;51.980;5.856;2023-02-28T10:33:52;7.80;36.20
67529;DHT22;54366;51.980;5.856;2023-02-28T10:36:25;7.80;35.90
67529;DHT22;54366;51.980;5.856;2023-02-28T10:38:51;7.90;35.10
67529;DHT22;54366;51.980;5.856;2023-02-28T10:41:32;7.90;36.00
67529;DHT22;54366;51.980;5.856;2023-02-28T10:44:28;8.00;35.90
67529;DHT22;54366;51.980;5.856;2023-02-28T10:47:01;8.00;35.80
67529;DHT22;54366;51.980;5.856;2023-02-28T10:49:35;8.00;35.40
67529;DHT22;54366;51.980;5.856;2023-02-28T10:52:10;8.00;35.00
67529;DHT22;54366;51.980;5.856;2023-02-28T10:54:43;8.10;35.70
67529;DHT22;54366;51.980;5.856;2023-02-28T10:57:23;8.20;36.70
67529;DHT22;54366;51.980;5.856;2023-02-28T11:00:31;8.30;35.60
67529;DHT22;54366;51.980;5.856;2023-02-28T11:03:29;8.40;36.00
67529;DHT22;54366;51.980;5.856;2023-02-28T11:06:22;8.60;35.50
67529;DHT22;54366;51.980;5.856;2023-02-28T11:09:06;8.60;35.50
67529;DHT22;54366;51.980;5.856;2023-02-28T11:11:47;8.80;36.10
67529;DHT22;54366;51.980;5.856;2023-02-28T11:14:25;9.00;35.20
67529;DHT22;54366;51.980;5.856;2023-02-28T11:17:18;9.10;35.00
67529;DHT22;54366;51.980;5.856;2023-02-28T11:20:00;9.10;35.40
67529;DHT22;54366;51.980;5.856;2023-02-28T11:22:43;9.20;35.40
67529;DHT22;54366;51.980;5.856;2023-02-28T11:25:26;9.30;34.50
67529;DHT22;54366;51.980;5.856;2023-02-28T11:28:02;9.30;34.50
67529;DHT22;54366;51.980;5.856;2023-02-28T11:30:40;9.40;34.70
67529;DHT22;54366;51.980;5.856;2023-02-28T11:33:30;9.40;34.30
67529;DHT22;54366;51.980;5.856;2023-02-28T11:36:13;9.40;33.90
67529;DHT22;54366;51.980;5.856;2023-02-28T11:38:47;9.40;32.70
67529;DHT22;54366;51.980;5.856;2023-02-28T11:42:32;9.40;33.70
67529;DHT22;54366;51.980;5.856;2023-02-28T11:45:07;9.50;33.40
67529;DHT22;54366;51.980;5.856;2023-02-28T11:51:26;9.70;33.90
67529;DHT22;54366;51.980;5.856;2023-02-28T11:54:44;9.80;32.90
67529;DHT22;54366;51.980;5.856;2023-02-28T11:57:36;9.80;32.10
67529;DHT22;54366;51.980;5.856;2023-02-28T12:03:39;9.90;33.00
67529;DHT22;54366;51.980;5.856;2023-02-28T12:06:52;9.90;32.30
67529;DHT22;54366;51.980;5.856;2023-02-28T12:09:46;10.00;32.50
67529;DHT22;54366;51.980;5.856;2023-02-28T12:19:54;10.10;32.40
67529;DHT22;54366;51.980;5.856;2023-02-28T12:22:30;10.10;32.20
67529;DHT22;54366;51.980;5.856;2023-02-28T12:28:23;10.10;31.20
67529;DHT22;54366;51.980;5.856;2023-02-28T12:31:08;10.10;31.40
67529;DHT22;54366;51.980;5.856;2023-02-28T12:33:47;10.10;31.50
67529;DHT22;54366;51.980;5.856;2023-02-28T12:36:22;10.10;31.10
67529;DHT22;54366;51.980;5.856;2023-02-28T12:39:19;10.00;31.40
67529;DHT22;54366;51.980;5.856;2023-02-28T12:41:57;9.90;31.70
67529;DHT22;54366;51.980;5.856;2023-02-28T12:44:47;9.90;32.60
67529;DHT22;54366;51.980;5.856;2023-02-28T12:47:21;9.90;31.90
67529;DHT22;54366;51.980;5.856;2023-02-28T12:50:06;10.00;32.30
67529;DHT22;54366;51.980;5.856;2023-02-28T12:52:59;10.00;32.40
67529;DHT22;54366;51.980;5.856;2023-02-28T12:57:19;10.00;30.90
67529;DHT22;54366;51.980;5.856;2023-02-28T12:58:59;10.00;30.60
67529;DHT22;54366;51.980;5.856;2023-02-28T13:03:32;9.90;31.40
67529;DHT22;54366;51.980;5.856;2023-02-28T13:06:02;10.00;31.90
67529;DHT22;54366;51.980;5.856;2023-02-28T13:08:37;9.90;31.30
67529;DHT22;54366;51.980;5.856;2023-02-28T13:11:32;9.80;29.60
67529;DHT22;54366;51.980;5.856;2023-02-28T13:14:16;9.70;31.00
67529;DHT22;54366;51.980;5.856;2023-02-28T13:17:12;9.60;29.90
67529;DHT22;54366;51.980;5.856;2023-02-28T13:19:56;9.60;30.80
67529;DHT22;54366;51.980;5.856;2023-02-28T13:22:39;9.50;31.60
67529;DHT22;54366;51.980;5.856;2023-02-28T13:29:01;9.30;32.50
67529;DHT22;54366;51.980;5.856;2023-02-28T13:35:34;9.20;31.90
67529;DHT22;54366;51.980;5.856;2023-02-28T13:38:16;9.10;31.60
67529;DHT22;54366;51.980;5.856;2023-02-28T13:44:22;9.00;31.80
67529;DHT22;54366;51.980;5.856;2023-02-28T13:49:49;8.80;33.30
67529;DHT22;54366;51.980;5.856;2023-02-28T13:52:24;8.70;33.70
67529;DHT22;54366;51.980;5.856;2023-02-28T14:02:31;8.50;33.30
67529;DHT22;54366;51.980;5.856;2023-02-28T14:05:19;8.50;33.70
67529;DHT22;54366;51.980;5.856;2023-02-28T14:08:02;8.50;33.60
67529;DHT22;54366;51.980;5.856;2023-02-28T14:10:42;8.40;33.50
67529;DHT22;54366;51.980;5.856;2023-02-28T14:13:45;8.40;33.60
67529;DHT22;54366;51.980;5.856;2023-02-28T14:16:24;8.40;34.20
67529;DHT22;54366;51.980;5.856;2023-02-28T14:19:03;8.30;34.60
67529;DHT22;54366;51.980;5.856;2023-02-28T14:21:43;8.30;34.70
67529;DHT22;54366;51.980;5.856;2023-02-28T14:28:43;8.30;33.30
67529;DHT22;54366;51.980;5.856;2023-02-28T14:31:33;8.30;34.10
67529;DHT22;54366;51.980;5.856;2023-02-28T14:34:43;8.30;34.80
67529;DHT22;54366;51.980;5.856;2023-02-28T14:37:22;8.30;34.40
67529;DHT22;54366;51.980;5.856;2023-02-28T14:39:58;8.20;34.70
67529;DHT22;54366;51.980;5.856;2023-02-28T14:42:37;8.20;34.90
67529;DHT22;54366;51.980;5.856;2023-02-28T14:45:20;8.20;34.40
67529;DHT22;54366;51.980;5.856;2023-02-28T14:47:53;8.20;34.60
67529;DHT22;54366;51.980;5.856;2023-02-28T14:50:36;8.20;34.80
67529;DHT22;54366;51.980;5.856;2023-02-28T14:53:18;8.20;35.50
67529;DHT22;54366;51.980;5.856;2023-02-28T14:55:51;8.20;35.60
67529;DHT22;54366;51.980;5.856;2023-02-28T14:58:25;8.30;34.80
67529;DHT22;54366;51.980;5.856;2023-02-28T15:01:01;8.30;33.50
67529;DHT22;54366;51.980;5.856;2023-02-28T15:03:35;8.30;34.10
67529;DHT22;54366;51.980;5.856;2023-02-28T15:06:16;8.20;34.70
67529;DHT22;54366;51.980;5.856;2023-02-28T15:09:07;8.20;34.80
67529;DHT22;54366;51.980;5.856;2023-02-28T15:11:40;8.20;35.10
67529;DHT22;54366;51.980;5.856;2023-02-28T15:14:21;8.20;35.80
67529;DHT22;54366;51.980;5.856;2023-02-28T15:17:00;8.20;35.30
67529;DHT22;54366;51.980;5.856;2023-02-28T15:19:36;8.20;34.90
67529;DHT22;54366;51.980;5.856;2023-02-28T15:22:19;8.30;35.20
67529;DHT22;54366;51.980;5.856;2023-02-28T15:24:54;8.20;35.70
67529;DHT22;54366;51.980;5.856;2023-02-28T15:27:30;8.30;35.70
67529;DHT22;54366;51.980;5.856;2023-02-28T15:30:07;8.30;36.50
67529;DHT22;54366;51.980;5.856;2023-02-28T15:32:40;8.30;35.80
67529;DHT22;54366;51.980;5.856;2023-02-28T15:35:28;8.40;35.70
67529;DHT22;54366;51.980;5.856;2023-02-28T15:38:36;8.30;35.10
67529;DHT22;54366;51.980;5.856;2023-02-28T15:41:30;8.30;35.10
67529;DHT22;54366;51.980;5.856;2023-02-28T15:44:25;8.20;33.60
67529;DHT22;54366;51.980;5.856;2023-02-28T15:47:17;8.20;34.00
67529;DHT22;54366;51.980;5.856;2023-02-28T15:49:57;8.20;33.90
67529;DHT22;54366;51.980;5.856;2023-02-28T15:52:48;8.20;34.40
67529;DHT22;54366;51.980;5.856;2023-02-28T15:55:24;8.20;34.70
67529;DHT22;54366;51.980;5.856;2023-02-28T15:58:01;8.20;34.90
67529;DHT22;54366;51.980;5.856;2023-02-28T16:00:34;8.20;35.30
67529;DHT22;54366;51.980;5.856;2023-02-28T16:03:40;8.20;34.90
67529;DHT22;54366;51.980;5.856;2023-02-28T16:06:26;8.10;35.40
67529;DHT22;54366;51.980;5.856;2023-02-28T16:09:05;8.10;35.00
67529;DHT22;54366;51.980;5.856;2023-02-28T16:11:49;8.10;34.40
67529;DHT22;54366;51.980;5.856;2023-02-28T16:14:24;8.10;34.90
67529;DHT22;54366;51.980;5.856;2023-02-28T16:17:14;8.10;34.70
67529;DHT22;54366;51.980;5.856;2023-02-28T16:19:48;8.10;34.70
67529;DHT22;54366;51.980;5.856;2023-02-28T16:22:21;8.00;35.10
67529;DHT22;54366;51.980;5.856;2023-02-28T16:24:54;8.00;35.50
67529;DHT22;54366;51.980;5.856;2023-02-28T16:27:32;8.00;35.90
67529;DHT22;54366;51.980;5.856;2023-02-28T16:30:06;7.90;36.50
67529;DHT22;54366;51.980;5.856;2023-02-28T16:32:39;7.90;36.00
67529;DHT22;54366;51.980;5.856;2023-02-28T16:35:12;7.80;36.10
67529;DHT22;54366;51.980;5.856;2023-02-28T16:37:46;7.80;36.30
67529;DHT22;54366;51.980;5.856;2023-02-28T16:40:26;7.80;36.00
67529;DHT22;54366;51.980;5.856;2023-02-28T16:43:15;7.70;36.50
67529;DHT22;54366;51.980;5.856;2023-02-28T16:45:57;7.70;36.40
67529;DHT22;54366;51.980;5.856;2023-02-28T16:48:30;7.70;36.80
67529;DHT22;54366;51.980;5.856;2023-02-28T16:51:03;7.60;36.80
67529;DHT22;54366;51.980;5.856;2023-02-28T16:53:37;7.60;37.00
67529;DHT22;54366;51.980;5.856;2023-02-28T16:56:28;7.60;37.50
67529;DHT22;54366;51.980;5.856;2023-02-28T16:59:02;7.50;37.40
67529;DHT22;54366;51.980;5.856;2023-02-28T17:01:28;7.50;36.70
67529;DHT22;54366;51.980;5.856;2023-02-28T17:04:01;7.50;37.40
67529;DHT22;54366;51.980;5.856;2023-02-28T17:06:34;7.40;37.80
67529;DHT22;54366;51.980;5.856;2023-02-28T17:09:18;7.40;38.30
67529;DHT22;54366;51.980;5.856;2023-02-28T17:11:52;7.30;38.40
67529;DHT22;54366;51.980;5.856;2023-02-28T17:14:25;7.30;38.80
67529;DHT22;54366;51.980;5.856;2023-02-28T17:16:58;7.30;39.30
67529;DHT22;54366;51.980;5.856;2023-02-28T17:19:31;7.10;40.10
67529;DHT22;54366;51.980;5.856;2023-02-28T17:22:04;7.00;41.90
67529;DHT22;54366;51.980;5.856;2023-02-28T17:24:37;6.90;41.50
67529;DHT22;54366;51.980;5.856;2023-02-28T17:27:12;6.90;42.00
67529;DHT22;54366;51.980;5.856;2023-02-28T17:29:45;6.80;42.60
67529;DHT22;54366;51.980;5.856;2023-02-28T17:32:18;6.70;43.10
67529;DHT22;54366;51.980;5.856;2023-02-28T17:34:51;6.60;42.60
67529;DHT22;54366;51.980;5.856;2023-02-28T17:37:24;6.60;42.70
67529;DHT22;54366;51.980;5.856;2023-02-28T17:39:57;6.40;42.40
67529;DHT22;54366;51.980;5.856;2023-02-28T17:42:36;6.40;43.60
67529;DHT22;54366;51.980;5.856;2023-02-28T17:45:10;6.30;43.80
67529;DHT22;54366;51.980;5.856;2023-02-28T17:47:46;6.20;43.80
67529;DHT22;54366;51.980;5.856;2023-02-28T17:50:21;6.20;44.20
67529;DHT22;54366;51.980;5.856;2023-02-28T17:52:54;6.10;44.60
67529;DHT22;54366;51.980;5.856;2023-02-28T17:55:27;6.00;44.60
67529;DHT22;54366;51.980;5.856;2023-02-28T17:58:00;6.00;44.80
67529;DHT22;54366;51.980;5.856;2023-02-28T18:00:33;6.00;44.50
67529;DHT22;54366;51.980;5.856;2023-02-28T18:03:06;5.90;44.80